Time;durP1;ratioP1;P1;durP2;ratioP2;P2;SDS_P1;SDS_P2;PMS_P1;PMS_P2;Temp;Humidity;BMP_temperature;BMP_pressure;BME280_temperature;BME280_humidity;BME280_pressure;Samples;Min_cycle;Max_cycle;Signal;HPM_P1;HPM_P2
2023/07/06 00:01:20;;;;;;;5.43;2.72;;;12.90;99.90;;;;;;5111100;28;20058;-66
2023/07/06 00:03:46;;;;;;;5.60;3.25;;;12.90;99.90;;;;;;5112587;28;20044;-66
2023/07/06 00:06:12;;;;;;;5.60;3.30;;;12.90;99.90;;;;;;5112712;28;20036;-66
2023/07/06 00:08:38;;;;;;;8.75;4.00;;;12.90;99.90;;;;;;5111609;28;20044;-66
2023/07/06 00:11:07;;;;;;;6.95;2.90;;;12.80;99.90;;;;;;5112295;28;20495;-66
2023/07/06 00:13:32;;;;;;;6.75;4.15;;;12.90;99.90;;;;;;5112623;28;20035;-66
2023/07/06 00:16:02;;;;;;;7.55;2.88;;;12.80;99.90;;;;;;5111562;28;20487;-67
2023/07/06 00:18:28;;;;;;;4.13;3.10;;;12.80;99.90;;;;;;5112385;28;20043;-66
2023/07/06 00:20:54;;;;;;;6.93;3.40;;;12.80;99.90;;;;;;5112304;28;20508;-66
2023/07/06 00:23:21;;;;;;;4.25;3.30;;;12.80;99.90;;;;;;5112458;28;20093;-66
2023/07/06 00:25:47;;;;;;;7.70;3.33;;;12.80;99.90;;;;;;5112504;28;20043;-66
2023/07/06 00:28:14;;;;;;;8.60;3.03;;;12.70;99.90;;;;;;5105026;28;20048;-66
2023/07/06 00:30:53;;;;;;;6.45;3.60;;;12.70;99.90;;;;;;5097404;28;20054;-66
2023/07/06 00:33:19;;;;;;;5.40;2.80;;;12.70;99.90;;;;;;5109275;28;20043;-66
2023/07/06 00:35:46;;;;;;;12.15;4.45;;;12.50;99.90;;;;;;5112441;28;20039;-66
2023/07/06 00:38:15;;;;;;;4.57;3.47;;;12.60;99.90;;;;;;5112034;28;20039;-66
2023/07/06 00:40:43;;;;;;;6.13;3.28;;;12.50;99.90;;;;;;5111821;28;20044;-66
2023/07/06 00:43:17;;;;;;;7.60;3.38;;;12.50;99.90;;;;;;5111882;28;20123;-66
2023/07/06 00:45:45;;;;;;;6.93;3.10;;;12.40;99.90;;;;;;5112067;28;20043;-66
2023/07/06 00:48:21;;;;;;;6.47;3.25;;;12.40;99.90;;;;;;5111913;28;20043;-66
2023/07/06 00:50:52;;;;;;;6.55;3.35;;;12.40;99.90;;;;;;5110058;28;20399;-66
2023/07/06 00:53:19;;;;;;;5.22;3.83;;;12.40;99.90;;;;;;5103440;28;20210;-66
2023/07/06 00:55:44;;;;;;;8.68;4.47;;;12.40;99.90;;;;;;5111985;28;20047;-66
2023/07/06 00:58:18;;;;;;;6.97;3.78;;;12.40;99.90;;;;;;5111810;28;20681;-66
2023/07/06 01:00:44;;;;;;;;;;;12.30;99.90;;;;;;5112228;28;20047;-66
2023/07/06 01:03:10;;;;;;;10.52;4.28;;;12.30;99.90;;;;;;5112200;28;19920;-66
2023/07/06 01:05:39;;;;;;;7.82;4.20;;;12.30;99.90;;;;;;5112040;28;20058;-66
2023/07/06 01:08:12;;;;;;;9.88;5.10;;;12.30;99.90;;;;;;5111682;28;20039;-66
2023/07/06 01:10:39;;;;;;;9.25;4.93;;;12.30;99.90;;;;;;5111397;28;20509;-66
2023/07/06 01:13:07;;;;;;;8.50;4.97;;;12.30;99.90;;;;;;5111684;28;20434;-66
2023/07/06 01:15:40;;;;;;;9.93;5.22;;;12.40;99.90;;;;;;5111960;28;20039;-66
2023/07/06 01:18:13;;;;;;;9.15;5.47;;;12.20;99.90;;;;;;5111483;28;20392;-66
2023/07/06 01:20:53;;;;;;;7.43;5.63;;;12.40;99.90;;;;;;5113563;28;20114;-66
2023/07/06 01:23:44;;;;;;;7.55;5.28;;;12.30;99.90;;;;;;5115936;28;20046;-66
2023/07/06 01:26:18;;;;;;;7.95;5.63;;;12.30;99.90;;;;;;5115846;28;20039;-66
2023/07/06 01:28:55;;;;;;;8.90;6.22;;;12.30;99.90;;;;;;5115490;28;20127;-66
2023/07/06 01:31:37;;;;;;;11.05;6.18;;;12.30;99.90;;;;;;5115119;28;20135;-66
2023/07/06 01:34:27;;;;;;;12.23;5.45;;;12.30;99.90;;;;;;5115792;28;20044;-66
2023/07/06 01:37:22;;;;;;;11.38;6.78;;;12.30;99.90;;;;;;5115743;28;20100;-66
2023/07/06 01:39:48;;;;;;;10.77;6.45;;;12.30;99.90;;;;;;5115833;28;20114;-66
2023/07/06 01:42:27;;;;;;;10.38;5.55;;;12.20;99.90;;;;;;5115020;28;20040;-66
2023/07/06 01:44:57;;;;;;;12.63;6.50;;;12.20;99.90;;;;;;5115553;28;20043;-66
2023/07/06 01:47:24;;;;;;;10.43;6.97;;;12.30;99.90;;;;;;5115142;28;20044;-66
2023/07/06 01:49:51;;;;;;;13.73;6.68;;;12.30;99.90;;;;;;5115213;28;20039;-66
2023/07/06 01:52:49;;;;;;;14.68;7.35;;;12.30;99.90;;;;;;5115027;27;20115;-66
2023/07/06 01:55:21;;;;;;;10.55;6.43;;;12.30;99.90;;;;;;5115432;28;20137;-66
2023/07/06 01:57:59;;;;;;;13.63;6.80;;;12.20;99.90;;;;;;5115022;28;20043;-66
2023/07/06 02:00:26;;;;;;;13.88;6.38;;;12.30;99.90;;;;;;5114659;28;20043;-66
2023/07/06 02:02:53;;;;;;;15.15;7.13;;;12.30;99.90;;;;;;5115195;28;20387;-66
2023/07/06 02:05:23;;;;;;;10.98;6.57;;;12.30;99.90;;;;;;5115188;28;20095;-66
2023/07/06 02:07:51;;;;;;;13.45;7.00;;;12.30;99.90;;;;;;5114883;28;20035;-66
2023/07/06 02:10:19;;;;;;;9.38;7.10;;;12.30;99.90;;;;;;5114432;28;20420;-66
2023/07/06 02:12:47;;;;;;;10.65;7.35;;;12.40;99.90;;;;;;5114848;28;20169;-66
2023/07/06 02:15:16;;;;;;;13.80;7.00;;;12.40;99.90;;;;;;5115266;28;20032;-66
2023/07/06 02:17:43;;;;;;;10.98;7.35;;;12.50;99.90;;;;;;5114702;28;20036;-66
2023/07/06 02:20:08;;;;;;;11.95;7.22;;;12.50;99.90;;;;;;5114579;28;20046;-66
2023/07/06 02:22:34;;;;;;;11.27;7.57;;;12.50;99.90;;;;;;5114758;28;20039;-66
2023/07/06 02:25:00;;;;;;;10.02;7.07;;;12.50;99.90;;;;;;5114629;28;20111;-66
2023/07/06 02:27:25;;;;;;;9.75;6.40;;;12.50;99.90;;;;;;5114231;28;20028;-66
2023/07/06 02:29:51;;;;;;;9.90;6.82;;;12.60;99.90;;;;;;5114712;28;20031;-66
2023/07/06 02:32:16;;;;;;;11.50;7.18;;;12.70;99.90;;;;;;5113004;28;20069;-66
2023/07/06 02:34:42;;;;;;;15.32;8.00;;;12.70;99.90;;;;;;5114399;28;20036;-66
2023/07/06 02:37:08;;;;;;;8.77;6.82;;;12.60;99.90;;;;;;5114390;28;20036;-66
2023/07/06 02:39:33;;;;;;;15.43;7.47;;;12.60;99.90;;;;;;5114493;28;20050;-66
2023/07/06 02:41:59;;;;;;;13.18;7.53;;;12.70;99.90;;;;;;5113922;28;20050;-66
2023/07/06 02:44:25;;;;;;;12.52;8.02;;;12.70;99.90;;;;;;5114536;28;20042;-66
2023/07/06 02:46:51;;;;;;;14.40;7.90;;;12.70;99.90;;;;;;5114253;28;20441;-66
2023/07/06 02:49:17;;;;;;;10.82;7.03;;;12.70;99.90;;;;;;5113944;28;20035;-66
2023/07/06 02:51:43;;;;;;;13.75;7.85;;;12.80;99.90;;;;;;5113853;28;20054;-66
2023/07/06 02:54:13;;;;;;;15.10;7.20;;;12.70;99.90;;;;;;5113910;28;20053;-66
2023/07/06 02:56:41;;;;;;;14.60;7.25;;;12.70;99.90;;;;;;5114030;28;20076;-66
2023/07/06 02:59:08;;;;;;;11.45;7.43;;;12.80;99.90;;;;;;5112393;28;20034;-66
2023/07/06 03:01:34;;;;;;;12.23;7.28;;;12.80;99.90;;;;;;5113549;28;20456;-66
2023/07/06 03:04:00;;;;;;;10.05;6.93;;;12.90;99.90;;;;;;5114090;28;20039;-66
2023/07/06 03:06:25;;;;;;;12.85;6.95;;;12.80;99.90;;;;;;5113861;28;20039;-66
2023/07/06 03:08:51;;;;;;;9.13;6.22;;;12.80;99.90;;;;;;5113423;28;20039;-66
2023/07/06 03:11:17;;;;;;;10.45;7.10;;;12.80;99.90;;;;;;5113127;28;20126;-66
2023/07/06 03:13:42;;;;;;;8.80;5.53;;;12.80;99.90;;;;;;5113597;28;20510;-66
2023/07/06 03:16:08;;;;;;;10.32;6.53;;;12.80;99.90;;;;;;5113837;28;20036;-66
2023/07/06 03:18:34;;;;;;;10.23;6.40;;;12.70;99.90;;;;;;5112390;28;20619;-66
2023/07/06 03:21:00;;;;;;;12.00;6.82;;;12.70;99.90;;;;;;5113191;28;20153;-66
2023/07/06 03:23:28;;;;;;;9.95;6.32;;;12.70;99.90;;;;;;5113388;28;20116;-66
2023/07/06 03:25:54;;;;;;;7.68;5.75;;;12.70;99.90;;;;;;5113429;28;20069;-66
2023/07/06 03:28:23;;;;;;;9.88;6.53;;;12.70;99.90;;;;;;5112970;28;20114;-66
2023/07/06 03:30:56;;;;;;;9.13;6.00;;;12.70;99.90;;;;;;5113055;28;20032;-66
2023/07/06 03:33:24;;;;;;;9.43;6.18;;;12.60;99.90;;;;;;5113325;28;20043;-66
2023/07/06 03:35:53;;;;;;;8.52;5.90;;;12.60;99.90;;;;;;5113307;28;20035;-66
2023/07/06 03:38:20;;;;;;;8.02;5.90;;;12.60;99.90;;;;;;5112811;28;20042;-66
2023/07/06 03:40:49;;;;;;;9.15;6.65;;;12.60;99.90;;;;;;5113093;28;20387;-67
2023/07/06 03:43:16;;;;;;;8.80;5.43;;;12.60;99.90;;;;;;5127934;22;20522;-67
2023/07/06 03:45:42;;;;;;;13.98;6.43;;;12.60;99.90;;;;;;5091685;28;20059;-68
2023/07/06 03:48:08;;;;;;;7.15;4.93;;;12.60;99.90;;;;;;5092024;28;20036;-68
2023/07/06 03:50:34;;;;;;;8.80;5.30;;;12.60;99.90;;;;;;5091981;28;20177;-68
2023/07/06 03:53:00;;;;;;;8.30;6.00;;;12.60;99.90;;;;;;5073660;28;20047;-68
2023/07/06 03:55:27;;;;;;;11.80;5.50;;;12.60;99.90;;;;;;5092182;28;20089;-68
2023/07/06 03:57:53;;;;;;;8.65;5.20;;;12.70;99.90;;;;;;5092180;28;20062;-68
2023/07/06 04:00:24;;;;;;;8.05;5.25;;;12.70;99.90;;;;;;5092026;28;20122;-68
2023/07/06 04:02:52;;;;;;;6.93;5.00;;;12.70;99.90;;;;;;5092210;28;20036;-68
2023/07/06 04:05:22;;;;;;;8.68;5.18;;;12.80;99.90;;;;;;5073692;28;20048;-68
2023/07/06 04:07:55;;;;;;;10.30;6.18;;;12.70;99.90;;;;;;5091928;28;20097;-67
2023/07/06 04:10:21;;;;;;;8.55;5.30;;;12.80;99.90;;;;;;5091831;28;20040;-68
2023/07/06 04:12:48;;;;;;;12.23;5.97;;;12.80;99.90;;;;;;5091959;28;20483;-68
2023/07/06 04:15:17;;;;;;;6.20;5.10;;;12.80;99.90;;;;;;5092041;28;20035;-68
2023/07/06 04:17:43;;;;;;;8.75;5.80;;;12.80;99.90;;;;;;5091444;28;20562;-67
2023/07/06 04:20:18;;;;;;;10.30;5.35;;;13.00;99.90;;;;;;5091553;28;20044;-67
2023/07/06 04:22:46;;;;;;;9.68;5.30;;;13.00;99.90;;;;;;5091996;28;20082;-68
2023/07/06 04:25:11;;;;;;;13.13;5.82;;;12.90;99.90;;;;;;5091732;28;20356;-68
2023/07/06 04:27:37;;;;;;;8.93;6.07;;;13.00;99.90;;;;;;5087998;28;20036;-68
2023/07/06 04:30:03;;;;;;;10.30;6.40;;;13.10;99.90;;;;;;5082079;28;20055;-67
2023/07/06 04:32:31;;;;;;;10.63;6.65;;;13.10;99.90;;;;;;5071220;28;20044;-67
2023/07/06 04:34:57;;;;;;;15.30;7.00;;;13.20;99.90;;;;;;5085733;28;20055;-68
2023/07/06 04:37:23;;;;;;;14.10;6.65;;;13.20;99.90;;;;;;5091431;28;20028;-68
2023/07/06 04:39:49;;;;;;;11.05;5.95;;;13.20;99.90;;;;;;5091709;28;20050;-67
2023/07/06 04:42:14;;;;;;;9.30;6.55;;;13.10;99.90;;;;;;5091122;28;20403;-67
2023/07/06 04:44:40;;;;;;;8.27;6.22;;;13.30;99.90;;;;;;5091580;28;20077;-67
2023/07/06 04:47:06;;;;;;;12.82;7.05;;;13.30;99.90;;;;;;5091103;28;20051;-68
2023/07/06 04:49:31;;;;;;;9.98;6.93;;;13.20;99.90;;;;;;5091618;28;20038;-68
2023/07/06 04:51:57;;;;;;;11.73;6.95;;;13.30;99.90;;;;;;5091261;28;20040;-67
2023/07/06 04:54:23;;;;;;;12.15;6.75;;;13.30;99.90;;;;;;5090825;28;20040;-68
2023/07/06 04:56:48;;;;;;;11.88;7.30;;;13.20;99.90;;;;;;5073327;28;20120;-68
2023/07/06 04:59:14;;;;;;;14.15;7.10;;;13.30;99.90;;;;;;5091104;28;20469;-68
2023/07/06 05:01:40;;;;;;;9.45;5.95;;;13.40;99.90;;;;;;5072906;28;20036;-68
2023/07/06 05:04:05;;;;;;;13.77;7.20;;;13.40;99.90;;;;;;5086843;28;20049;-68
2023/07/06 05:06:31;;;;;;;13.15;6.43;;;13.40;99.90;;;;;;5081517;28;20515;-68
2023/07/06 05:08:57;;;;;;;10.52;7.13;;;13.40;99.90;;;;;;5072915;28;20119;-68
2023/07/06 05:11:25;;;;;;;12.50;6.88;;;13.40;99.90;;;;;;5090931;28;20150;-68
2023/07/06 05:13:50;;;;;;;11.02;6.80;;;13.40;99.90;;;;;;5086241;28;20040;-68
2023/07/06 05:16:16;;;;;;;13.05;6.38;;;13.50;99.90;;;;;;5087722;28;20131;-68
2023/07/06 05:18:43;;;;;;;13.52;7.65;;;13.40;99.90;;;;;;5091100;28;20036;-68
2023/07/06 05:21:10;;;;;;;13.40;7.32;;;13.40;99.90;;;;;;5090966;28;20040;-68
2023/07/06 05:23:35;;;;;;;11.70;7.38;;;13.50;99.90;;;;;;5088192;28;20109;-68
2023/07/06 05:26:02;;;;;;;14.98;8.02;;;13.70;99.90;;;;;;5085808;28;20555;-68
2023/07/06 05:28:29;;;;;;;13.48;7.60;;;13.70;99.90;;;;;;5090783;28;20040;-68
2023/07/06 05:30:56;;;;;;;12.40;7.40;;;13.90;99.90;;;;;;5090603;28;20044;-68
2023/07/06 05:33:21;;;;;;;15.82;7.72;;;14.00;99.90;;;;;;5091210;28;20040;-68
2023/07/06 05:35:47;;;;;;;12.90;7.80;;;14.20;99.90;;;;;;5091284;28;20036;-68
2023/07/06 05:38:13;;;;;;;15.68;7.57;;;14.20;99.90;;;;;;5090947;28;20028;-68
2023/07/06 05:40:40;;;;;;;17.48;8.10;;;14.40;99.90;;;;;;5090872;28;20047;-68
2023/07/06 05:43:05;;;;;;;11.77;7.80;;;14.30;99.90;;;;;;5090956;28;20040;-68
2023/07/06 05:45:31;;;;;;;11.90;8.00;;;14.50;99.90;;;;;;5090920;28;20047;-68
2023/07/06 05:47:57;;;;;;;12.15;7.30;;;14.40;99.90;;;;;;5090943;28;20089;-68
2023/07/06 05:50:23;;;;;;;13.35;7.47;;;14.50;99.90;;;;;;5089557;28;20075;-67
2023/07/06 05:52:49;;;;;;;16.77;9.98;;;14.50;99.90;;;;;;5083903;28;20107;-68
2023/07/06 05:55:15;;;;;;;13.35;7.63;;;14.50;99.90;;;;;;5091087;28;20036;-68
2023/07/06 05:57:43;;;;;;;16.52;7.25;;;14.70;99.90;;;;;;5090702;28;20032;-68
2023/07/06 06:00:11;;;;;;;16.10;7.55;;;14.90;99.90;;;;;;5090847;28;20044;-68
2023/07/06 06:02:39;;;;;;;11.27;7.47;;;15.30;99.90;;;;;;5073082;28;20040;-68
2023/07/06 06:05:05;;;;;;;13.00;7.15;;;15.60;99.90;;;;;;5091013;28;20086;-68
2023/07/06 06:07:31;;;;;;;11.88;7.35;;;16.00;99.90;;;;;;5092530;28;20047;-68
2023/07/06 06:09:57;;;;;;;14.82;6.85;;;16.30;99.90;;;;;;5094518;28;20036;-67
2023/07/06 06:12:23;;;;;;;11.48;6.97;;;16.60;99.90;;;;;;5093846;28;20036;-68
2023/07/06 06:14:50;;;;;;;15.65;8.13;;;17.00;99.90;;;;;;5094429;28;20487;-68
2023/07/06 06:17:18;;;;;;;15.63;7.00;;;17.20;99.90;;;;;;5094253;28;20036;-68
2023/07/06 06:19:45;;;;;;;12.27;6.32;;;17.50;99.90;;;;;;5094441;28;20089;-68
2023/07/06 06:22:12;;;;;;;11.52;6.35;;;17.70;99.90;;;;;;5094007;28;20055;-68
2023/07/06 06:24:38;;;;;;;16.85;7.13;;;17.90;99.90;;;;;;5094305;28;20039;-68
2023/07/06 06:27:05;;;;;;;12.68;6.68;;;18.00;99.90;;;;;;5093864;28;20043;-67
2023/07/06 06:29:32;;;;;;;11.57;6.10;;;18.20;99.90;;;;;;5094316;28;20055;-68
2023/07/06 06:31:59;;;;;;;17.25;6.72;;;18.40;99.90;;;;;;5093877;28;20040;-68
2023/07/06 06:34:25;;;;;;;11.13;5.35;;;18.30;99.90;;;;;;5094072;28;20044;-68
2023/07/06 06:36:51;;;;;;;18.23;6.78;;;18.40;99.90;;;;;;5094186;28;20062;-69
2023/07/06 06:39:17;;;;;;;12.23;6.38;;;18.70;99.90;;;;;;5093598;28;20583;-68
2023/07/06 06:41:43;;;;;;;11.52;5.60;;;18.90;99.90;;;;;;5093749;28;20075;-69
2023/07/06 06:44:11;;;;;;;14.18;6.10;;;19.00;99.90;;;;;;5093786;28;20520;-69
2023/07/06 06:46:37;;;;;;;18.42;7.28;;;19.20;99.90;;;;;;5075717;28;20055;-68
2023/07/06 06:49:02;;;;;;;12.23;6.35;;;19.40;99.90;;;;;;5075545;28;20170;-68
2023/07/06 06:51:28;;;;;;;14.05;6.10;;;19.40;99.90;;;;;;5091554;28;20495;-68
2023/07/06 06:53:53;;;;;;;11.57;5.45;;;19.60;99.90;;;;;;5079784;28;20044;-69
2023/07/06 06:56:19;;;;;;;15.13;5.38;;;19.80;99.90;;;;;;5084556;28;20085;-66
2023/07/06 06:58:46;;;;;;;9.88;5.72;;;20.00;99.90;;;;;;5092679;28;20067;-68
2023/07/06 07:01:13;;;;;;;9.10;5.88;;;20.10;99.90;;;;;;5086058;28;20083;-68
2023/07/06 07:03:39;;;;;;;14.23;5.63;;;20.30;99.90;;;;;;5070257;28;20503;-68
2023/07/06 07:06:14;;;;;;;11.40;5.22;;;20.40;99.90;;;;;;5091361;28;20542;-66
2023/07/06 07:08:39;;;;;;;14.18;5.32;;;20.60;99.90;;;;;;5085409;28;20515;-66
2023/07/06 07:11:06;;;;;;;10.15;4.75;;;20.80;99.90;;;;;;5088979;28;20032;-66
2023/07/06 07:13:32;;;;;;;12.65;5.40;;;20.80;99.90;;;;;;5084586;28;20098;-67
2023/07/06 07:15:58;;;;;;;10.52;4.82;;;20.90;99.90;;;;;;5093330;28;20036;-66
2023/07/06 07:18:23;;;;;;;11.15;4.78;;;21.20;99.90;;;;;;5071575;28;20450;-66
2023/07/06 07:20:53;;;;;;;8.77;4.70;;;21.20;99.90;;;;;;5090033;28;20522;-67
2023/07/06 07:23:23;;;;;;;10.25;5.78;;;21.40;99.90;;;;;;5092186;28;20052;-67
2023/07/06 07:25:49;;;;;;;11.82;4.60;;;21.50;99.90;;;;;;5088523;28;20553;-66
2023/07/06 07:28:16;;;;;;;11.80;4.63;;;21.50;99.90;;;;;;5091329;28;20043;-66
2023/07/06 07:30:46;;;;;;;9.57;4.97;;;21.60;99.90;;;;;;5086322;28;20048;-67
2023/07/06 07:33:12;;;;;;;16.80;5.95;;;21.80;99.90;;;;;;5092667;28;20047;-67
2023/07/06 07:35:41;;;;;;;14.57;4.85;;;21.80;99.90;;;;;;5072900;28;20519;-67
2023/07/06 07:38:07;;;;;;;9.75;4.10;;;22.00;99.90;;;;;;5081825;28;20047;-66
2023/07/06 07:40:32;;;;;;;13.45;4.47;;;22.10;99.90;;;;;;5086188;28;20032;-66
2023/07/06 07:42:59;;;;;;;9.93;3.45;;;21.90;99.90;;;;;;5071579;28;20059;-66
2023/07/06 07:45:25;;;;;;;8.90;3.35;;;22.10;99.90;;;;;;5085497;28;20040;-67
2023/07/06 07:47:50;;;;;;;11.35;4.05;;;21.90;99.90;;;;;;5091245;28;20036;-67
2023/07/06 07:50:17;;;;;;;8.55;3.47;;;21.90;99.90;;;;;;5083389;28;20047;-66
2023/07/06 07:52:43;;;;;;;6.55;3.42;;;22.00;99.90;;;;;;5091897;28;20043;-67
2023/07/06 07:55:10;;;;;;;11.05;3.60;;;22.20;99.90;;;;;;5093989;28;20036;-67
2023/07/06 07:57:37;;;;;;;9.57;3.00;;;22.50;99.90;;;;;;5089267;28;20040;-67
2023/07/06 08:00:06;;;;;;;7.32;2.58;;;22.70;99.90;;;;;;5089877;28;20051;-67
2023/07/06 08:02:32;;;;;;;7.43;2.70;;;22.70;99.90;;;;;;5091722;28;20047;-67
2023/07/06 08:05:01;;;;;;;8.23;2.50;;;22.60;99.90;;;;;;5085847;28;20044;-66
2023/07/06 08:07:27;;;;;;;8.80;2.60;;;22.80;99.90;;;;;;5089552;28;20043;-67
2023/07/06 08:09:53;;;;;;;5.90;1.95;;;23.00;99.90;;;;;;5092832;28;20047;-67
2023/07/06 08:12:20;;;;;;;2.75;1.65;;;23.10;99.90;;;;;;5090397;28;20036;-67
2023/07/06 08:14:45;;;;;;;7.32;2.05;;;23.00;99.90;;;;;;5086280;28;20032;-67
2023/07/06 08:17:12;;;;;;;5.28;1.70;;;23.00;99.90;;;;;;5092534;28;20034;-67
2023/07/06 08:19:38;;;;;;;2.90;1.48;;;22.90;98.20;;;;;;5089908;28;20086;-67
2023/07/06 08:22:03;;;;;;;6.43;2.33;;;23.30;97.80;;;;;;5088145;28;20036;-67
2023/07/06 08:24:29;;;;;;;4.95;2.03;;;23.30;97.40;;;;;;5089265;28;20032;-67
2023/07/06 08:26:55;;;;;;;4.85;2.00;;;23.50;97.10;;;;;;5087335;28;20048;-67
2023/07/06 08:29:22;;;;;;;6.00;2.10;;;23.60;97.20;;;;;;5087720;28;20032;-68
2023/07/06 08:31:49;;;;;;;6.05;1.90;;;23.60;97.30;;;;;;5084026;28;20043;-68
2023/07/06 08:34:16;;;;;;;7.45;1.90;;;23.70;96.40;;;;;;5084920;28;20115;-68
2023/07/06 08:36:43;;;;;;;3.78;1.48;;;23.70;96.00;;;;;;5085378;28;20506;-68
2023/07/06 08:39:09;;;;;;;3.38;1.40;;;23.70;94.80;;;;;;5088732;28;20036;-68
2023/07/06 08:41:41;;;;;;;4.68;1.50;;;23.80;95.60;;;;;;5085355;28;20546;-68
2023/07/06 08:44:11;;;;;;;6.63;1.75;;;23.40;93.70;;;;;;5088307;28;20119;-69
2023/07/06 08:46:41;;;;;;;6.00;1.80;;;23.10;95.20;;;;;;5084530;28;20044;-68
2023/07/06 08:49:27;;;;;;;3.92;1.52;;;22.60;95.40;;;;;;5081834;28;20046;-68
2023/07/06 08:51:53;;;;;;;2.53;1.40;;;22.10;94.30;;;;;;5083389;28;20043;-67
2023/07/06 08:54:22;;;;;;;2.90;1.65;;;21.50;96.00;;;;;;5080142;28;20029;-67
2023/07/06 08:56:48;;;;;;;3.83;1.45;;;21.20;96.50;;;;;;5091659;28;20036;-67
2023/07/06 08:59:40;;;;;;;5.57;1.70;;;20.90;98.20;;;;;;5073082;28;20046;-68
2023/07/06 09:02:34;;;;;;;6.85;1.80;;;20.50;98.60;;;;;;5091216;28;20039;-67
2023/07/06 09:05:06;;;;;;;;;;;20.30;99.60;;;;;;5086380;28;20036;-67
2023/07/06 09:07:34;;;;;;;3.40;1.55;;;20.00;99.90;;;;;;5091148;28;19919;-67
2023/07/06 09:10:01;;;;;;;5.95;1.80;;;19.80;99.90;;;;;;5073481;28;20110;-67
2023/07/06 09:12:32;;;;;;;5.40;1.60;;;19.70;99.90;;;;;;5091011;28;20044;-67
2023/07/06 09:14:59;;;;;;;3.42;1.40;;;19.60;99.90;;;;;;5091419;28;20051;-68
2023/07/06 09:17:26;;;;;;;3.90;1.42;;;19.60;99.90;;;;;;5091141;28;20442;-67
2023/07/06 09:19:56;;;;;;;4.18;1.65;;;19.60;99.90;;;;;;5087546;28;20043;-68
2023/07/06 09:22:23;;;;;;;4.63;1.58;;;20.00;99.90;;;;;;5089718;28;20602;-67
2023/07/06 09:24:50;;;;;;;4.18;1.73;;;20.00;99.90;;;;;;5086640;28;20040;-68
2023/07/06 09:27:24;;;;;;;3.30;1.40;;;20.00;99.90;;;;;;5079383;28;20036;-68
2023/07/06 09:30:02;;;;;;;3.30;1.40;;;19.90;99.60;;;;;;5084542;28;20044;-67
2023/07/06 09:32:32;;;;;;;4.38;1.38;;;19.70;98.70;;;;;;5082771;28;20028;-67
2023/07/06 09:35:12;;;;;;;6.10;1.70;;;19.60;99.90;;;;;;5087249;28;20032;-67
2023/07/06 09:37:50;;;;;;;5.10;1.42;;;19.50;99.80;;;;;;5089369;28;20169;-68
2023/07/06 09:40:16;;;;;;;5.32;1.20;;;19.30;99.90;;;;;;5087082;28;20047;-67
2023/07/06 09:42:44;;;;;;;3.35;1.38;;;19.30;99.90;;;;;;5110523;22;20046;-65
2023/07/06 09:45:30;;;;;;;4.45;1.40;;;19.20;99.90;;;;;;5061607;28;20403;-68
2023/07/06 09:48:07;;;;;;;4.80;1.50;;;19.20;99.90;;;;;;5047036;28;20493;-68
2023/07/06 09:50:37;;;;;;;3.83;1.52;;;19.10;99.90;;;;;;5058718;28;20036;-68
2023/07/06 09:53:05;;;;;;;13.77;2.05;;;19.30;99.90;;;;;;5054485;28;20416;-68
2023/07/06 09:55:31;;;;;;;3.40;1.30;;;19.80;99.90;;;;;;5054891;28;20048;-67
2023/07/06 09:57:58;;;;;;;3.25;1.33;;;19.80;99.90;;;;;;5054537;28;20033;-68
2023/07/06 10:00:39;;;;;;;5.55;1.58;;;19.70;99.90;;;;;;5054307;28;20420;-68
2023/07/06 10:03:43;;;;;;;3.08;1.58;;;19.70;99.90;;;;;;5052923;28;20033;-68
2023/07/06 10:06:20;;;;;;;2.10;0.93;;;19.30;99.60;;;;;;5049589;28;20037;-68
2023/07/06 10:08:57;;;;;;;2.80;1.50;;;19.20;99.90;;;;;;5054261;28;20129;-68
2023/07/06 10:11:43;;;;;;;4.82;1.30;;;19.10;99.90;;;;;;5056000;28;20044;-68
2023/07/06 10:14:23;;;;;;;2.70;1.50;;;19.50;99.90;;;;;;5056437;28;20090;-68
2023/07/06 10:17:34;;;;;;;3.33;1.58;;;20.00;99.90;;;;;;5047349;28;20041;-68
2023/07/06 10:20:23;;;;;;;3.88;1.48;;;20.50;99.90;;;;;;4992532;28;20125;-68
2023/07/06 10:23:04;;;;;;;4.25;1.67;;;20.90;99.90;;;;;;5054492;28;20044;-68
2023/07/06 10:25:33;;;;;;;4.57;1.83;;;21.00;99.90;;;;;;5053071;28;20049;-68
2023/07/06 10:28:07;;;;;;;6.00;1.45;;;21.20;98.00;;;;;;5052720;28;20048;-68
2023/07/06 10:30:39;;;;;;;2.25;1.23;;;21.40;96.10;;;;;;5052234;28;20077;-68
2023/07/06 10:33:11;;;;;;;6.60;1.15;;;21.40;95.30;;;;;;5053955;28;20045;-67
2023/07/06 10:35:46;;;;;;;2.58;1.60;;;21.30;95.20;;;;;;5054110;28;20076;-68
2023/07/06 10:38:13;;;;;;;5.45;1.38;;;21.30;94.90;;;;;;5053764;28;20067;-68
2023/07/06 10:40:39;;;;;;;3.00;1.20;;;21.30;95.90;;;;;;5053492;28;20124;-68
2023/07/06 10:43:20;;;;;;;3.33;1.55;;;21.20;97.20;;;;;;5053479;28;20124;-68
2023/07/06 10:45:56;;;;;;;3.80;1.63;;;21.00;95.70;;;;;;5053544;28;20116;-69
2023/07/06 10:48:24;;;;;;;2.95;1.83;;;21.20;95.50;;;;;;5053461;28;20560;-68
2023/07/06 10:51:17;;;;;;;4.50;1.40;;;21.30;95.30;;;;;;5053255;28;20036;-69
2023/07/06 10:53:48;;;;;;;5.83;1.77;;;21.60;96.90;;;;;;5044701;28;20091;-69
2023/07/06 10:56:17;;;;;;;7.05;1.50;;;21.60;96.20;;;;;;5053426;28;20492;-69
2023/07/06 10:58:55;;;;;;;4.18;1.35;;;21.50;96.90;;;;;;5053320;28;20060;-69
2023/07/06 11:01:22;;;;;;;3.00;1.33;;;21.40;96.40;;;;;;5052913;28;20451;-68
2023/07/06 11:03:48;;;;;;;3.47;1.50;;;21.30;96.80;;;;;;5053266;28;20041;-68
2023/07/06 11:06:17;;;;;;;4.80;1.30;;;21.30;97.20;;;;;;5053218;28;20041;-69
2023/07/06 11:09:13;;;;;;;2.55;1.20;;;21.50;98.40;;;;;;5053146;28;20049;-68
2023/07/06 11:11:41;;;;;;;3.05;1.25;;;21.70;95.70;;;;;;5056633;28;20064;-68
2023/07/06 11:14:42;;;;;;;4.15;1.30;;;21.70;95.70;;;;;;5052986;28;20084;-68
2023/07/06 11:17:36;;;;;;;2.90;1.17;;;21.90;93.60;;;;;;5052992;28;20079;-68
2023/07/06 11:20:15;;;;;;;1.90;0.90;;;22.00;94.30;;;;;;5053002;28;20120;-69
2023/07/06 11:22:45;;;;;;;2.72;1.25;;;22.00;93.60;;;;;;5052955;28;20049;-69
2023/07/06 11:25:14;;;;;;;1.75;1.00;;;21.90;93.60;;;;;;5056799;28;20527;-68
2023/07/06 11:27:44;;;;;;;3.42;1.17;;;22.00;92.50;;;;;;5052613;28;20049;-66
2023/07/06 11:30:15;;;;;;;4.47;1.27;;;22.00;93.50;;;;;;5052526;28;20067;-66
2023/07/06 11:33:13;;;;;;;3.42;1.30;;;21.90;92.70;;;;;;5052867;28;20047;-66
2023/07/06 11:35:38;;;;;;;3.67;1.00;;;21.90;92.80;;;;;;5053033;28;20044;-66
2023/07/06 11:38:26;;;;;;;4.68;1.45;;;22.00;93.10;;;;;;5052366;28;20493;-66
2023/07/06 11:41:30;;;;;;;2.70;1.30;;;21.90;93.20;;;;;;5055606;28;20561;-66
2023/07/06 11:44:14;;;;;;;;;;;21.90;94.60;;;;;;5049080;28;20490;-68
2023/07/06 11:47:07;;;;;;;4.22;1.55;;;21.70;95.60;;;;;;5052448;28;19920;-68
2023/07/06 11:50:08;;;;;;;3.20;1.15;;;21.70;93.00;;;;;;5052102;28;20047;-68
2023/07/06 11:52:37;;;;;;;3.38;1.20;;;21.70;93.20;;;;;;5035886;28;20055;-69
2023/07/06 11:55:28;;;;;;;6.03;1.35;;;21.60;93.50;;;;;;5052329;28;20041;-66
2023/07/06 11:58:18;;;;;;;2.65;1.52;;;21.70;94.80;;;;;;5052010;28;20090;-66
2023/07/06 12:00:52;;;;;;;3.60;1.33;;;21.60;94.30;;;;;;5052163;28;20052;-68
2023/07/06 12:03:20;;;;;;;2.15;1.27;;;21.40;93.90;;;;;;5052129;28;20496;-69
2023/07/06 12:05:48;;;;;;;2.45;1.33;;;21.20;93.70;;;;;;5052148;28;20514;-68
2023/07/06 12:08:36;;;;;;;3.83;1.30;;;21.10;93.80;;;;;;5051684;28;20047;-66
2023/07/06 12:11:11;;;;;;;6.97;1.48;;;20.90;94.70;;;;;;5051648;28;20032;-66
2023/07/06 12:13:43;;;;;;;15.98;1.85;;;20.80;95.40;;;;;;5052041;28;20051;-68
2023/07/06 12:16:30;;;;;;;2.95;1.30;;;20.70;95.60;;;;;;5052068;28;20489;-68
2023/07/06 12:19:03;;;;;;;3.78;1.08;;;20.60;95.30;;;;;;5051567;28;20417;-66
2023/07/06 12:21:32;;;;;;;1.92;0.80;;;20.60;95.30;;;;;;5051826;28;20052;-66
2023/07/06 12:24:02;;;;;;;3.97;0.90;;;20.60;94.60;;;;;;5051972;28;20049;-66
2023/07/06 12:26:29;;;;;;;2.50;0.82;;;20.60;94.70;;;;;;5051902;28;20083;-66
2023/07/06 12:28:59;;;;;;;2.55;0.80;;;20.80;94.20;;;;;;5051532;28;20043;-66
2023/07/06 12:31:26;;;;;;;1.90;1.08;;;20.90;95.40;;;;;;5051286;28;20029;-66
2023/07/06 12:33:53;;;;;;;2.45;0.80;;;21.00;95.60;;;;;;5050534;28;20056;-67
2023/07/06 12:36:21;;;;;;;1.73;0.75;;;21.00;94.70;;;;;;5051855;28;20040;-67
2023/07/06 12:38:50;;;;;;;1.85;0.80;;;21.10;94.00;;;;;;5051518;28;20040;-67
2023/07/06 12:41:20;;;;;;;3.05;1.10;;;21.10;93.90;;;;;;5070719;28;20044;-67
2023/07/06 12:43:46;;;;;;;2.25;1.17;;;21.00;95.00;;;;;;5059474;28;20044;-67
2023/07/06 12:46:13;;;;;;;2.53;1.27;;;20.90;95.50;;;;;;5051154;28;20661;-68
2023/07/06 12:48:48;;;;;;;2.60;1.15;;;20.90;95.70;;;;;;5051268;28;20124;-66
2023/07/06 12:51:19;;;;;;;3.30;1.23;;;20.90;95.60;;;;;;5051238;28;20111;-67
2023/07/06 12:53:47;;;;;;;2.53;1.33;;;20.90;96.40;;;;;;5051397;28;20565;-67
2023/07/06 12:56:15;;;;;;;2.80;1.13;;;21.20;97.70;;;;;;5051459;28;20090;-67
2023/07/06 12:58:57;;;;;;;2.70;1.95;;;21.50;97.40;;;;;;5050948;28;20033;-67